sensor_id;sensor_type;location;lat;lon;timestamp;pressure;altitude;pressure_sealevel;temperature;humidity
75219;BME280;63801;49.414;19.474;2023-02-01T00:00:04;93277.28;;;-0.19;82.88
75219;BME280;63801;49.414;19.474;2023-02-01T00:02:05;93257.19;;;-0.20;82.88
75219;BME280;63801;49.414;19.474;2023-02-01T00:04:05;93263.97;;;-0.14;82.93
75219;BME280;63801;49.414;19.474;2023-02-01T00:06:05;93250.22;;;-0.16;82.72
75219;BME280;63801;49.414;19.474;2023-02-01T00:08:06;93253.06;;;-0.13;82.83
75219;BME280;63801;49.414;19.474;2023-02-01T00:10:07;93254.63;;;-0.12;83.04
75219;BME280;63801;49.414;19.474;2023-02-01T00:12:08;93249.63;;;-0.13;83.00
75219;BME280;63801;49.414;19.474;2023-02-01T00:14:08;93242.06;;;-0.20;82.92
75219;BME280;63801;49.414;19.474;2023-02-01T00:16:21;93241.09;;;-0.10;82.57
75219;BME280;63801;49.414;19.474;2023-02-01T00:18:21;93236.09;;;-0.12;82.75
75219;BME280;63801;49.414;19.474;2023-02-01T00:20:22;93234.22;;;-0.11;82.60
75219;BME280;63801;49.414;19.474;2023-02-01T00:22:22;93226.47;;;-0.08;82.76
75219;BME280;63801;49.414;19.474;2023-02-01T00:24:22;93233.06;;;-0.05;82.77
75219;BME280;63801;49.414;19.474;2023-02-01T00:26:30;93226.00;;;-0.10;82.69
75219;BME280;63801;49.414;19.474;2023-02-01T00:28:31;93231.78;;;-0.08;82.71
75219;BME280;63801;49.414;19.474;2023-02-01T00:30:31;93213.72;;;-0.06;82.58
75219;BME280;63801;49.414;19.474;2023-02-01T00:32:31;93212.84;;;-0.01;82.75
75219;BME280;63801;49.414;19.474;2023-02-01T00:34:32;93203.94;;;-0.05;82.83
75219;BME280;63801;49.414;19.474;2023-02-01T00:36:32;93202.94;;;-0.09;82.86
75219;BME280;63801;49.414;19.474;2023-02-01T00:38:35;93210.66;;;0.01;83.17
75219;BME280;63801;49.414;19.474;2023-02-01T00:40:36;93221.59;;;-0.01;82.87
75219;BME280;63801;49.414;19.474;2023-02-01T00:42:36;93227.53;;;0.05;83.02
75219;BME280;63801;49.414;19.474;2023-02-01T00:44:36;93223.53;;;0.08;82.96
75219;BME280;63801;49.414;19.474;2023-02-01T00:46:37;93239.44;;;0.08;83.21
75219;BME280;63801;49.414;19.474;2023-02-01T00:48:37;93232.94;;;0.14;82.69
75219;BME280;63801;49.414;19.474;2023-02-01T00:50:42;93241.19;;;0.12;83.17
75219;BME280;63801;49.414;19.474;2023-02-01T00:52:42;93240.59;;;0.15;82.80
75219;BME280;63801;49.414;19.474;2023-02-01T00:54:43;93240.78;;;0.19;82.88
75219;BME280;63801;49.414;19.474;2023-02-01T00:56:43;93238.53;;;0.12;82.90
75219;BME280;63801;49.414;19.474;2023-02-01T00:58:43;93240.31;;;0.17;82.86
75219;BME280;63801;49.414;19.474;2023-02-01T01:00:44;93245.50;;;0.22;82.83
75219;BME280;63801;49.414;19.474;2023-02-01T01:02:44;93250.81;;;0.22;82.89
75219;BME280;63801;49.414;19.474;2023-02-01T01:04:44;93249.41;;;0.24;82.90
75219;BME280;63801;49.414;19.474;2023-02-01T01:06:45;93256.28;;;0.25;82.60
75219;BME280;63801;49.414;19.474;2023-02-01T01:08:45;93253.66;;;0.25;82.80
75219;BME280;63801;49.414;19.474;2023-02-01T01:10:45;93239.72;;;0.20;82.52
75219;BME280;63801;49.414;19.474;2023-02-01T01:12:46;93255.69;;;0.28;82.72
75219;BME280;63801;49.414;19.474;2023-02-01T01:14:46;93256.78;;;0.27;82.62
75219;BME280;63801;49.414;19.474;2023-02-01T01:16:46;93257.28;;;0.29;82.73
75219;BME280;63801;49.414;19.474;2023-02-01T01:18:47;93253.53;;;0.30;82.61
75219;BME280;63801;49.414;19.474;2023-02-01T01:20:47;93251.38;;;0.32;82.48
75219;BME280;63801;49.414;19.474;2023-02-01T01:22:48;93253.03;;;0.28;82.65
75219;BME280;63801;49.414;19.474;2023-02-01T01:24:49;93258.16;;;0.38;82.46
75219;BME280;63801;49.414;19.474;2023-02-01T01:26:49;93242.34;;;0.33;82.35
75219;BME280;63801;49.414;19.474;2023-02-01T01:28:50;93226.72;;;0.32;82.16
75219;BME280;63801;49.414;19.474;2023-02-01T01:30:50;93224.28;;;0.35;82.39
75219;BME280;63801;49.414;19.474;2023-02-01T01:32:51;93211.34;;;0.20;82.16
75219;BME280;63801;49.414;19.474;2023-02-01T01:34:52;93239.69;;;0.33;82.44
75219;BME280;63801;49.414;19.474;2023-02-01T01:36:52;93234.38;;;0.33;82.28
75219;BME280;63801;49.414;19.474;2023-02-01T01:38:52;93223.50;;;0.35;82.42
75219;BME280;63801;49.414;19.474;2023-02-01T01:40:53;93217.41;;;0.34;82.42
75219;BME280;63801;49.414;19.474;2023-02-01T01:42:53;93208.78;;;0.29;82.47
75219;BME280;63801;49.414;19.474;2023-02-01T01:44:59;93216.81;;;0.37;82.29
75219;BME280;63801;49.414;19.474;2023-02-01T01:47:00;93199.31;;;0.36;82.21
75219;BME280;63801;49.414;19.474;2023-02-01T01:51:09;93203.09;;;0.35;82.37
75219;BME280;63801;49.414;19.474;2023-02-01T01:53:18;93198.84;;;0.34;82.35
75219;BME280;63801;49.414;19.474;2023-02-01T01:55:20;93201.00;;;0.32;82.66
75219;BME280;63801;49.414;19.474;2023-02-01T01:59:24;93202.59;;;0.33;82.40
75219;BME280;63801;49.414;19.474;2023-02-01T02:01:25;93200.91;;;0.37;82.82
75219;BME280;63801;49.414;19.474;2023-02-01T02:03:30;93190.91;;;0.34;82.40
75219;BME280;63801;49.414;19.474;2023-02-01T02:05:34;93200.00;;;0.42;82.61
75219;BME280;63801;49.414;19.474;2023-02-01T02:07:37;93206.56;;;0.44;82.54
75219;BME280;63801;49.414;19.474;2023-02-01T02:09:39;93211.28;;;0.48;82.53
75219;BME280;63801;49.414;19.474;2023-02-01T02:11:40;93195.00;;;0.40;82.44
75219;BME280;63801;49.414;19.474;2023-02-01T02:13:42;93214.41;;;0.50;82.51
75219;BME280;63801;49.414;19.474;2023-02-01T02:18:32;93198.16;;;0.42;82.72
75219;BME280;63801;49.414;19.474;2023-02-01T02:30:06;93197.72;;;0.49;83.03
75219;BME280;63801;49.414;19.474;2023-02-01T02:34:50;93209.31;;;0.53;83.03
75219;BME280;63801;49.414;19.474;2023-02-01T02:41:57;93229.50;;;0.63;82.89
75219;BME280;63801;49.414;19.474;2023-02-01T02:44:34;93212.81;;;0.62;82.93
75219;BME280;63801;49.414;19.474;2023-02-01T02:47:00;93220.56;;;0.59;83.00
75219;BME280;63801;49.414;19.474;2023-02-01T02:49:42;93210.69;;;0.51;82.98
75219;BME280;63801;49.414;19.474;2023-02-01T02:51:49;93214.41;;;0.50;83.10
75219;BME280;63801;49.414;19.474;2023-02-01T02:54:15;93218.84;;;0.40;83.50
75219;BME280;63801;49.414;19.474;2023-02-01T02:56:37;93203.25;;;0.39;83.35
75219;BME280;63801;49.414;19.474;2023-02-01T02:58:57;93214.84;;;0.43;83.28
75219;BME280;63801;49.414;19.474;2023-02-01T03:01:16;93193.59;;;0.21;83.22
75219;BME280;63801;49.414;19.474;2023-02-01T03:03:37;93218.75;;;0.45;82.95
75219;BME280;63801;49.414;19.474;2023-02-01T03:05:56;93224.56;;;0.48;82.97
75219;BME280;63801;49.414;19.474;2023-02-01T03:09:59;93206.81;;;0.34;82.53
75219;BME280;63801;49.414;19.474;2023-02-01T03:12:11;93182.09;;;0.25;82.76
75219;BME280;63801;49.414;19.474;2023-02-01T03:14:33;93195.59;;;0.37;82.85
75219;BME280;63801;49.414;19.474;2023-02-01T03:17:04;93212.56;;;0.50;82.59
75219;BME280;63801;49.414;19.474;2023-02-01T03:19:28;93194.16;;;0.54;82.61
75219;BME280;63801;49.414;19.474;2023-02-01T03:21:40;93191.66;;;0.49;82.59
75219;BME280;63801;49.414;19.474;2023-02-01T03:23:42;93188.88;;;0.54;82.55
75219;BME280;63801;49.414;19.474;2023-02-01T03:25:44;93195.75;;;0.55;82.51
75219;BME280;63801;49.414;19.474;2023-02-01T03:28:07;93207.56;;;0.49;82.51
75219;BME280;63801;49.414;19.474;2023-02-01T03:32:21;93227.47;;;0.60;82.69
75219;BME280;63801;49.414;19.474;2023-02-01T03:34:21;93242.47;;;0.64;82.74
75219;BME280;63801;49.414;19.474;2023-02-01T03:36:36;93235.41;;;0.60;82.59
75219;BME280;63801;49.414;19.474;2023-02-01T03:40:48;93236.16;;;0.74;82.36
75219;BME280;63801;49.414;19.474;2023-02-01T03:42:53;93247.25;;;0.76;82.54
75219;BME280;63801;49.414;19.474;2023-02-01T03:45:03;93236.06;;;0.79;82.41
75219;BME280;63801;49.414;19.474;2023-02-01T03:47:08;93241.81;;;0.81;82.41
75219;BME280;63801;49.414;19.474;2023-02-01T03:49:11;93240.25;;;0.80;81.65
75219;BME280;63801;49.414;19.474;2023-02-01T03:51:13;93244.13;;;0.74;81.88
75219;BME280;63801;49.414;19.474;2023-02-01T03:53:16;93266.38;;;0.86;82.13
75219;BME280;63801;49.414;19.474;2023-02-01T03:55:20;93264.00;;;0.85;82.18
75219;BME280;63801;49.414;19.474;2023-02-01T03:57:26;93267.63;;;0.89;81.65
75219;BME280;63801;49.414;19.474;2023-02-01T03:59:29;93290.16;;;0.92;82.07
75219;BME280;63801;49.414;19.474;2023-02-01T04:01:30;93287.19;;;0.93;82.00
75219;BME280;63801;49.414;19.474;2023-02-01T04:03:31;93278.56;;;0.87;81.90
75219;BME280;63801;49.414;19.474;2023-02-01T04:05:32;93290.94;;;0.92;81.85
75219;BME280;63801;49.414;19.474;2023-02-01T04:07:33;93294.66;;;0.91;81.77
75219;BME280;63801;49.414;19.474;2023-02-01T04:09:33;93280.44;;;0.87;81.58
75219;BME280;63801;49.414;19.474;2023-02-01T04:11:33;93276.81;;;0.83;81.41
75219;BME280;63801;49.414;19.474;2023-02-01T04:13:33;93269.97;;;0.68;81.11
75219;BME280;63801;49.414;19.474;2023-02-01T04:15:34;93277.13;;;0.68;81.25
75219;BME280;63801;49.414;19.474;2023-02-01T04:17:34;93277.94;;;0.55;81.43
75219;BME280;63801;49.414;19.474;2023-02-01T04:19:35;93279.53;;;0.56;81.45
75219;BME280;63801;49.414;19.474;2023-02-01T04:21:35;93278.84;;;0.50;81.19
75219;BME280;63801;49.414;19.474;2023-02-01T04:23:35;93278.66;;;0.47;81.37
75219;BME280;63801;49.414;19.474;2023-02-01T04:25:36;93272.75;;;0.50;81.33
75219;BME280;63801;49.414;19.474;2023-02-01T04:27:37;93276.00;;;0.47;80.96
75219;BME280;63801;49.414;19.474;2023-02-01T04:29:37;93281.31;;;0.47;80.82
75219;BME280;63801;49.414;19.474;2023-02-01T04:31:37;93279.25;;;0.43;80.81
75219;BME280;63801;49.414;19.474;2023-02-01T04:33:38;93289.75;;;0.49;81.29
75219;BME280;63801;49.414;19.474;2023-02-01T04:35:38;93287.09;;;0.49;80.63
75219;BME280;63801;49.414;19.474;2023-02-01T04:37:38;93287.09;;;0.49;80.72
75219;BME280;63801;49.414;19.474;2023-02-01T04:39:39;93305.84;;;0.52;81.07
75219;BME280;63801;49.414;19.474;2023-02-01T04:41:39;93294.66;;;0.55;81.30
75219;BME280;63801;49.414;19.474;2023-02-01T04:43:39;93285.13;;;0.54;80.74
75219;BME280;63801;49.414;19.474;2023-02-01T04:45:40;93294.34;;;0.57;80.18
75219;BME280;63801;49.414;19.474;2023-02-01T04:47:40;93295.91;;;0.58;80.71
75219;BME280;63801;49.414;19.474;2023-02-01T04:49:41;93290.13;;;0.56;80.59
75219;BME280;63801;49.414;19.474;2023-02-01T04:51:41;93296.41;;;0.60;80.31
75219;BME280;63801;49.414;19.474;2023-02-01T04:53:42;93304.97;;;0.57;80.33
75219;BME280;63801;49.414;19.474;2023-02-01T04:55:43;93309.84;;;0.63;80.46
75219;BME280;63801;49.414;19.474;2023-02-01T04:57:43;93294.34;;;0.57;80.65
75219;BME280;63801;49.414;19.474;2023-02-01T04:59:44;93312.22;;;0.65;80.34
75219;BME280;63801;49.414;19.474;2023-02-01T05:01:44;93319.09;;;0.66;80.28
75219;BME280;63801;49.414;19.474;2023-02-01T05:03:44;93299.63;;;0.70;79.93
75219;BME280;63801;49.414;19.474;2023-02-01T05:05:47;93314.75;;;0.70;80.05
75219;BME280;63801;49.414;19.474;2023-02-01T05:07:48;93315.22;;;0.72;79.85
75219;BME280;63801;49.414;19.474;2023-02-01T05:09:48;93317.88;;;0.72;79.89
75219;BME280;63801;49.414;19.474;2023-02-01T05:11:48;93319.97;;;0.75;79.99
75219;BME280;63801;49.414;19.474;2023-02-01T05:14:07;93321.03;;;0.74;79.49
75219;BME280;63801;49.414;19.474;2023-02-01T05:16:08;93318.38;;;0.74;79.92
75219;BME280;63801;49.414;19.474;2023-02-01T05:18:08;93327.91;;;0.75;80.07
75219;BME280;63801;49.414;19.474;2023-02-01T05:20:09;93320.94;;;0.79;80.17
75219;BME280;63801;49.414;19.474;2023-02-01T05:22:09;93323.59;;;0.79;79.96
75219;BME280;63801;49.414;19.474;2023-02-01T05:24:10;93318.84;;;0.76;79.92
75219;BME280;63801;49.414;19.474;2023-02-01T05:26:10;93314.53;;;0.80;79.69
75219;BME280;63801;49.414;19.474;2023-02-01T05:28:10;93329.06;;;0.82;79.67
75219;BME280;63801;49.414;19.474;2023-02-01T05:30:11;93319.53;;;0.81;79.81
75219;BME280;63801;49.414;19.474;2023-02-01T05:32:12;93319.84;;;0.80;79.45
75219;BME280;63801;49.414;19.474;2023-02-01T05:34:12;93334.66;;;0.81;79.38
75219;BME280;63801;49.414;19.474;2023-02-01T05:36:13;93320.72;;;0.75;79.60
75219;BME280;63801;49.414;19.474;2023-02-01T05:38:13;93318.84;;;0.76;79.78
75219;BME280;63801;49.414;19.474;2023-02-01T05:40:13;93332.03;;;0.81;79.55
75219;BME280;63801;49.414;19.474;2023-02-01T05:42:14;93332.03;;;0.81;79.49
75219;BME280;63801;49.414;19.474;2023-02-01T05:44:15;93319.97;;;0.75;79.58
75219;BME280;63801;49.414;19.474;2023-02-01T05:46:15;93328.91;;;0.79;79.37
75219;BME280;63801;49.414;19.474;2023-02-01T05:48:15;93324.66;;;0.78;79.15
75219;BME280;63801;49.414;19.474;2023-02-01T05:50:16;93327.31;;;0.78;79.06
75219;BME280;63801;49.414;19.474;2023-02-01T05:52:17;93313.19;;;0.69;79.37
75219;BME280;63801;49.414;19.474;2023-02-01T05:54:19;93300.81;;;0.64;79.31
75219;BME280;63801;49.414;19.474;2023-02-01T05:56:20;93319.28;;;0.69;79.04
75219;BME280;63801;49.414;19.474;2023-02-01T05:58:20;93322.31;;;0.76;79.14
75219;BME280;63801;49.414;19.474;2023-02-01T06:00:21;93320.84;;;0.70;78.89
75219;BME280;63801;49.414;19.474;2023-02-01T06:02:21;93316.34;;;0.71;78.60
75219;BME280;63801;49.414;19.474;2023-02-01T06:04:24;93316.53;;;0.61;79.00
75219;BME280;63801;49.414;19.474;2023-02-01T06:06:24;93326.44;;;0.69;78.92
75219;BME280;63801;49.414;19.474;2023-02-01T06:08:24;93316.91;;;0.68;79.15
75219;BME280;63801;49.414;19.474;2023-02-01T06:10:25;93314.25;;;0.68;79.23
75219;BME280;63801;49.414;19.474;2023-02-01T06:12:26;93313.88;;;0.74;79.42
75219;BME280;63801;49.414;19.474;2023-02-01T06:14:28;93322.00;;;0.78;78.97
75219;BME280;63801;49.414;19.474;2023-02-01T06:16:28;93307.47;;;0.75;79.10
75219;BME280;63801;49.414;19.474;2023-02-01T06:18:29;93316.53;;;0.74;79.04
75219;BME280;63801;49.414;19.474;2023-02-01T06:20:30;93321.22;;;0.77;79.00
75219;BME280;63801;49.414;19.474;2023-02-01T06:22:31;93322.63;;;0.75;78.48
75219;BME280;63801;49.414;19.474;2023-02-01T06:24:31;93321.31;;;0.72;78.74
75219;BME280;63801;49.414;19.474;2023-02-01T06:26:32;93323.50;;;0.70;78.31
75219;BME280;63801;49.414;19.474;2023-02-01T06:28:34;93329.69;;;0.66;78.42
75219;BME280;63801;49.414;19.474;2023-02-01T06:30:34;93335.00;;;0.66;78.38
75219;BME280;63801;49.414;19.474;2023-02-01T06:32:34;93322.03;;;0.64;77.83
75219;BME280;63801;49.414;19.474;2023-02-01T06:34:35;93331.38;;;0.62;78.41
75219;BME280;63801;49.414;19.474;2023-02-01T06:36:37;93333.25;;;0.61;78.49
75219;BME280;63801;49.414;19.474;2023-02-01T06:38:38;93332.13;;;0.62;78.28
75219;BME280;63801;49.414;19.474;2023-02-01T06:40:40;93316.13;;;0.54;78.25
75219;BME280;63801;49.414;19.474;2023-02-01T06:42:42;93324.00;;;0.59;78.39
75219;BME280;63801;49.414;19.474;2023-02-01T06:44:42;93330.97;;;0.68;78.60
75219;BME280;63801;49.414;19.474;2023-02-01T06:46:42;93319.28;;;0.69;78.11
75219;BME280;63801;49.414;19.474;2023-02-01T06:48:43;93316.34;;;0.71;77.78
75219;BME280;63801;49.414;19.474;2023-02-01T06:50:43;93315.34;;;0.67;77.74
75219;BME280;63801;49.414;19.474;2023-02-01T06:52:44;93318.19;;;0.70;77.99
75219;BME280;63801;49.414;19.474;2023-02-01T06:54:44;93317.88;;;0.72;77.58
75219;BME280;63801;49.414;19.474;2023-02-01T06:56:45;93313.09;;;0.74;77.96
75219;BME280;63801;49.414;19.474;2023-02-01T06:58:46;93318.38;;;0.74;77.56
75219;BME280;63801;49.414;19.474;2023-02-01T07:00:46;93318.69;;;0.72;77.75
75219;BME280;63801;49.414;19.474;2023-02-01T07:02:46;93318.06;;;0.75;77.63
75219;BME280;63801;49.414;19.474;2023-02-01T07:04:47;93306.50;;;0.71;77.79
75219;BME280;63801;49.414;19.474;2023-02-01T07:06:47;93314.53;;;0.80;77.69
75219;BME280;63801;49.414;19.474;2023-02-01T07:08:48;93312.19;;;0.78;77.02
75219;BME280;63801;49.414;19.474;2023-02-01T07:10:48;93312.00;;;0.75;77.07
75219;BME280;63801;49.414;19.474;2023-02-01T07:12:49;93306.69;;;0.75;77.21
75219;BME280;63801;49.414;19.474;2023-02-01T07:14:49;93302.75;;;0.72;76.99
75219;BME280;63801;49.414;19.474;2023-02-01T07:16:49;93311.22;;;0.74;77.17
75219;BME280;63801;49.414;19.474;2023-02-01T07:18:51;93309.81;;;0.77;77.97
75219;BME280;63801;49.414;19.474;2023-02-01T07:20:52;93286.06;;;0.72;77.96
75219;BME280;63801;49.414;19.474;2023-02-01T07:22:56;93303.03;;;0.84;77.76
75219;BME280;63801;49.414;19.474;2023-02-01T07:24:56;93307.75;;;0.87;77.66
75219;BME280;63801;49.414;19.474;2023-02-01T07:26:57;93280.03;;;0.80;77.16
75219;BME280;63801;49.414;19.474;2023-02-01T07:28:57;93301.06;;;0.90;77.11
75219;BME280;63801;49.414;19.474;2023-02-01T07:31:26;93298.09;;;0.92;77.12
75219;BME280;63801;49.414;19.474;2023-02-01T07:33:28;93292.72;;;0.83;76.54
75219;BME280;63801;49.414;19.474;2023-02-01T07:35:29;93285.56;;;0.83;76.54
75219;BME280;63801;49.414;19.474;2023-02-01T07:37:29;93282.69;;;0.80;76.48
75219;BME280;63801;49.414;19.474;2023-02-01T07:39:30;93299.00;;;0.87;76.82
75219;BME280;63801;49.414;19.474;2023-02-01T07:41:32;93287.78;;;0.90;76.89
75219;BME280;63801;49.414;19.474;2023-02-01T07:43:32;93292.38;;;0.98;76.75
75219;BME280;63801;49.414;19.474;2023-02-01T07:45:36;93294.25;;;0.98;76.36
75219;BME280;63801;49.414;19.474;2023-02-01T07:47:36;93280.50;;;0.96;76.55
75219;BME280;63801;49.414;19.474;2023-02-01T07:49:36;93294.44;;;1.01;76.68
75219;BME280;63801;49.414;19.474;2023-02-01T07:51:37;93279.44;;;0.97;77.08
75219;BME280;63801;49.414;19.474;2023-02-01T07:53:38;93281.13;;;1.15;76.88
75219;BME280;63801;49.414;19.474;2023-02-01T07:55:39;93275.03;;;1.14;76.54
75219;BME280;63801;49.414;19.474;2023-02-01T07:57:39;93281.78;;;1.20;76.77
75219;BME280;63801;49.414;19.474;2023-02-01T07:59:40;93287.47;;;1.27;76.68
75219;BME280;63801;49.414;19.474;2023-02-01T08:02:00;93290.47;;;1.34;76.38
75219;BME280;63801;49.414;19.474;2023-02-01T08:04:02;93290.34;;;1.40;76.36
75219;BME280;63801;49.414;19.474;2023-02-01T08:06:03;93293.97;;;1.44;76.34
75219;BME280;63801;49.414;19.474;2023-02-01T08:08:03;93293.84;;;1.49;76.66
75219;BME280;63801;49.414;19.474;2023-02-01T08:10:04;93283.53;;;1.47;75.99
75219;BME280;63801;49.414;19.474;2023-02-01T08:12:10;93280.09;;;1.47;75.70
75219;BME280;63801;49.414;19.474;2023-02-01T08:14:10;93273.41;;;1.49;76.10
75219;BME280;63801;49.414;19.474;2023-02-01T08:16:15;93296.28;;;1.59;75.58
75219;BME280;63801;49.414;19.474;2023-02-01T08:18:15;93289.25;;;1.63;75.22
75219;BME280;63801;49.414;19.474;2023-02-01T08:20:18;93286.97;;;1.48;75.13
75219;BME280;63801;49.414;19.474;2023-02-01T08:22:19;93286.69;;;1.49;75.22
75219;BME280;63801;49.414;19.474;2023-02-01T08:24:19;93295.59;;;1.53;75.37
75219;BME280;63801;49.414;19.474;2023-02-01T08:26:24;93289.50;;;1.53;75.74
75219;BME280;63801;49.414;19.474;2023-02-01T08:28:25;93299.22;;;1.57;75.60
75219;BME280;63801;49.414;19.474;2023-02-01T08:30:25;93304.53;;;1.57;75.56
75219;BME280;63801;49.414;19.474;2023-02-01T08:32:27;93282.63;;;1.52;75.71
75219;BME280;63801;49.414;19.474;2023-02-01T08:34:28;93299.09;;;1.62;75.41
75219;BME280;63801;49.414;19.474;2023-02-01T08:36:29;93295.78;;;1.57;75.20
75219;BME280;63801;49.414;19.474;2023-02-01T08:38:30;93293.28;;;1.60;75.69
75219;BME280;63801;49.414;19.474;2023-02-01T08:40:31;93283.56;;;1.56;75.10
75219;BME280;63801;49.414;19.474;2023-02-01T08:42:31;93288.88;;;1.56;74.85
75219;BME280;63801;49.414;19.474;2023-02-01T08:44:50;93295.94;;;1.60;75.40
75219;BME280;63801;49.414;19.474;2023-02-01T08:46:51;93288.66;;;1.66;75.36
75219;BME280;63801;49.414;19.474;2023-02-01T08:48:51;93288.69;;;1.74;75.45
75219;BME280;63801;49.414;19.474;2023-02-01T08:50:52;93286.56;;;1.85;75.68
75219;BME280;63801;49.414;19.474;2023-02-01T08:52:53;93271.72;;;1.84;75.56
75219;BME280;63801;49.414;19.474;2023-02-01T08:54:53;93287.44;;;2.03;75.13
75219;BME280;63801;49.414;19.474;2023-02-01T08:56:54;93278.66;;;2.02;75.12
75219;BME280;63801;49.414;19.474;2023-02-01T08:58:55;93293.38;;;2.08;74.84
75219;BME280;63801;49.414;19.474;2023-02-01T09:00:55;93277.22;;;1.96;74.99
75219;BME280;63801;49.414;19.474;2023-02-01T09:02:55;93286.94;;;2.01;75.04
75219;BME280;63801;49.414;19.474;2023-02-01T09:04:56;93277.22;;;1.96;75.11
75219;BME280;63801;49.414;19.474;2023-02-01T09:06:56;93290.09;;;2.03;75.43
75219;BME280;63801;49.414;19.474;2023-02-01T09:08:57;93287.47;;;2.11;75.58
75219;BME280;63801;49.414;19.474;2023-02-01T09:11:01;93282.19;;;2.20;75.19
75219;BME280;63801;49.414;19.474;2023-02-01T09:13:02;93266.41;;;2.23;74.94
75219;BME280;63801;49.414;19.474;2023-02-01T09:15:03;93278.31;;;2.35;74.70
75219;BME280;63801;49.414;19.474;2023-02-01T09:17:06;93273.94;;;2.30;74.66
75219;BME280;63801;49.414;19.474;2023-02-01T09:19:07;93260.13;;;2.19;74.13
75219;BME280;63801;49.414;19.474;2023-02-01T09:21:07;93267.81;;;2.21;74.31
75219;BME280;63801;49.414;19.474;2023-02-01T09:23:08;93269.81;;;2.15;74.24
75219;BME280;63801;49.414;19.474;2023-02-01T09:25:08;93262.88;;;2.06;74.78
75219;BME280;63801;49.414;19.474;2023-02-01T09:27:09;93264.13;;;2.08;74.66
75219;BME280;63801;49.414;19.474;2023-02-01T09:29:09;93260.22;;;2.06;75.06
75219;BME280;63801;49.414;19.474;2023-02-01T09:31:13;93239.69;;;1.89;75.48
75219;BME280;63801;49.414;19.474;2023-02-01T09:33:13;93253.44;;;1.91;75.63
75219;BME280;63801;49.414;19.474;2023-02-01T09:35:13;93250.16;;;1.86;75.76
75219;BME280;63801;49.414;19.474;2023-02-01T09:37:14;93254.06;;;1.88;76.18
75219;BME280;63801;49.414;19.474;2023-02-01T09:39:14;93258.75;;;1.91;76.21
75219;BME280;63801;49.414;19.474;2023-02-01T09:43:42;93253.63;;;1.95;76.52
75219;BME280;63801;49.414;19.474;2023-02-01T09:45:59;93251.16;;;1.98;76.58
75219;BME280;63801;49.414;19.474;2023-02-01T09:48:11;93256.91;;;2.00;76.29
75219;BME280;63801;49.414;19.474;2023-02-01T09:50:22;93258.63;;;1.96;76.36
75219;BME280;63801;49.414;19.474;2023-02-01T09:52:34;93255.00;;;1.92;76.57
75219;BME280;63801;49.414;19.474;2023-02-01T09:54:47;93239.06;;;1.92;76.74
75219;BME280;63801;49.414;19.474;2023-02-01T09:56:55;93236.09;;;1.85;77.00
75219;BME280;63801;49.414;19.474;2023-02-01T09:59:08;93241.56;;;1.89;77.16
75219;BME280;63801;49.414;19.474;2023-02-01T10:01:19;93246.22;;;1.83;77.35
75219;BME280;63801;49.414;19.474;2023-02-01T10:03:24;93235.38;;;1.71;77.58
75219;BME280;63801;49.414;19.474;2023-02-01T10:08:02;93235.22;;;1.67;77.92
75219;BME280;63801;49.414;19.474;2023-02-01T10:10:17;93229.59;;;1.69;77.73
75219;BME280;63801;49.414;19.474;2023-02-01T10:12:36;93231.78;;;1.67;78.12
75219;BME280;63801;49.414;19.474;2023-02-01T10:14:51;93222.31;;;1.52;77.80
75219;BME280;63801;49.414;19.474;2023-02-01T10:21:52;93217.75;;;1.44;77.95
75219;BME280;63801;49.414;19.474;2023-02-01T10:26:29;93211.78;;;1.39;78.62
75219;BME280;63801;49.414;19.474;2023-02-01T10:28:34;93219.00;;;1.47;78.58
75219;BME280;63801;49.414;19.474;2023-02-01T10:30:42;93203.22;;;1.42;78.79
75219;BME280;63801;49.414;19.474;2023-02-01T10:32:44;93217.91;;;1.48;78.83
75219;BME280;63801;49.414;19.474;2023-02-01T10:34:55;93192.59;;;1.42;78.64
75219;BME280;63801;49.414;19.474;2023-02-01T10:37:08;93214.97;;;1.49;78.64
75219;BME280;63801;49.414;19.474;2023-02-01T10:39:25;93210.09;;;1.43;79.02
75219;BME280;63801;49.414;19.474;2023-02-01T10:41:32;93210.88;;;1.43;78.93
75219;BME280;63801;49.414;19.474;2023-02-01T10:43:33;93202.38;;;1.32;78.99
75219;BME280;63801;49.414;19.474;2023-02-01T10:45:34;93202.84;;;1.34;79.01
75219;BME280;63801;49.414;19.474;2023-02-01T10:47:34;93211.94;;;1.42;79.02
75219;BME280;63801;49.414;19.474;2023-02-01T10:49:43;93210.25;;;1.46;79.08
75219;BME280;63801;49.414;19.474;2023-02-01T10:51:51;93199.03;;;1.49;79.13
75219;BME280;63801;49.414;19.474;2023-02-01T10:53:57;93198.13;;;1.54;78.76
75219;BME280;63801;49.414;19.474;2023-02-01T10:56:06;93197.16;;;1.50;78.85
75219;BME280;63801;49.414;19.474;2023-02-01T10:58:15;93198.78;;;1.59;78.70
75219;BME280;63801;49.414;19.474;2023-02-01T11:00:20;93199.06;;;1.58;78.78
75219;BME280;63801;49.414;19.474;2023-02-01T11:02:32;93202.81;;;1.57;78.70
75219;BME280;63801;49.414;19.474;2023-02-01T11:04:34;93191.72;;;1.55;78.95
75219;BME280;63801;49.414;19.474;2023-02-01T11:06:40;93197.25;;;1.67;78.72
75219;BME280;63801;49.414;19.474;2023-02-01T11:08:55;93192.41;;;1.69;78.79
75219;BME280;63801;49.414;19.474;2023-02-01T11:11:01;93188.50;;;1.66;78.52
75219;BME280;63801;49.414;19.474;2023-02-01T11:13:03;93192.53;;;1.64;78.64
75219;BME280;63801;49.414;19.474;2023-02-01T11:15:20;93200.50;;;1.64;78.65
75219;BME280;63801;49.414;19.474;2023-02-01T11:17:26;93195.00;;;1.60;78.43
75219;BME280;63801;49.414;19.474;2023-02-01T11:19:28;93201.72;;;1.58;79.21
75219;BME280;63801;49.414;19.474;2023-02-01T11:21:29;93195.19;;;1.64;79.05
75219;BME280;63801;49.414;19.474;2023-02-01T11:23:31;93190.53;;;1.69;79.14
75219;BME280;63801;49.414;19.474;2023-02-01T11:25:35;93188.03;;;1.73;78.79
75219;BME280;63801;49.414;19.474;2023-02-01T11:27:37;93187.06;;;1.69;78.77
75219;BME280;63801;49.414;19.474;2023-02-01T11:29:42;93188.03;;;1.73;78.57
75219;BME280;63801;49.414;19.474;2023-02-01T11:31:44;93190.88;;;1.76;78.81
75219;BME280;63801;49.414;19.474;2023-02-01T11:33:51;93190.56;;;1.78;78.83
75219;BME280;63801;49.414;19.474;2023-02-01T11:35:55;93181.81;;;1.86;78.76